createdAt,value
2018-04-01T00:01:51.303Z,62.80
2018-04-01T00:04:17.387Z,63.00
2018-04-01T00:06:43.520Z,62.40
2018-04-01T00:09:09.584Z,62.50
2018-04-01T00:11:35.616Z,62.80
2018-04-01T00:14:01.697Z,62.60
2018-04-01T00:16:28.488Z,62.90
2018-04-01T00:18:54.615Z,62.40
2018-04-01T00:21:20.701Z,62.50
2018-04-01T00:23:46.800Z,61.90
2018-04-01T00:26:12.884Z,62.00
2018-04-01T00:28:38.950Z,62.50
2018-04-01T00:31:05.063Z,61.70
2018-04-01T00:33:31.156Z,61.70
2018-04-01T00:35:57.235Z,61.40
2018-04-01T00:38:24.088Z,61.40
2018-04-01T00:40:50.178Z,61.40
2018-04-01T00:43:16.240Z,61.20
2018-04-01T00:45:43.084Z,61.20
2018-04-01T00:48:09.196Z,61.10
2018-04-01T00:50:35.984Z,61.00
2018-04-01T00:53:02.041Z,60.80
2018-04-01T00:55:28.145Z,60.90
2018-04-01T00:57:54.236Z,60.90
2018-04-01T01:00:20.356Z,60.90
2018-04-01T01:02:46.449Z,61.20
2018-04-01T01:05:12.555Z,61.10
2018-04-01T01:07:38.660Z,60.80
2018-04-01T01:10:04.767Z,61.00
2018-04-01T01:12:30.891Z,61.20
2018-04-01T01:14:56.973Z,61.40
2018-04-01T01:17:23.046Z,61.60
2018-04-01T01:19:49.175Z,61.60
2018-04-01T01:22:15.231Z,61.80
2018-04-01T01:24:41.402Z,61.80
2018-04-01T01:27:07.454Z,62.10
2018-04-01T01:29:33.528Z,61.80
2018-04-01T01:31:59.590Z,62.10
2018-04-01T01:34:25.666Z,62.30
2018-04-01T01:36:51.743Z,62.40
2018-04-01T01:39:17.868Z,62.00
2018-04-01T01:41:43.980Z,62.30
2018-04-01T01:44:10.065Z,62.50
2018-04-01T01:46:36.152Z,62.60
2018-04-01T01:49:02.243Z,63.00
2018-04-01T01:51:28.322Z,63.00
2018-04-01T01:53:54.401Z,63.00
2018-04-01T01:56:20.455Z,63.50
2018-04-01T01:58:46.830Z,63.40
2018-04-01T02:01:13.667Z,63.20
2018-04-01T02:03:39.767Z,63.80
2018-04-01T02:06:05.909Z,64.80
2018-04-01T02:08:31.968Z,64.20
2018-04-01T02:10:58.744Z,64.20
2018-04-01T02:13:24.828Z,64.10
2018-04-01T02:15:51.682Z,65.20
2018-04-01T02:18:17.804Z,65.00
2018-04-01T02:20:43.853Z,64.80
2018-04-01T02:23:09.942Z,64.60
2018-04-01T02:25:36.743Z,64.90
2018-04-01T02:28:02.852Z,64.80
2018-04-01T02:30:28.948Z,64.90
2018-04-01T02:32:55.105Z,64.90
2018-04-01T02:35:21.173Z,64.70
2018-04-01T02:37:47.265Z,65.30
2018-04-01T02:40:13.356Z,65.50
2018-04-01T02:42:39.437Z,65.70
2018-04-01T02:45:05.552Z,65.30
2018-04-01T02:47:31.638Z,65.40
2018-04-01T02:49:57.729Z,66.00
2018-04-01T02:52:23.894Z,66.10
2018-04-01T02:54:49.996Z,66.00
2018-04-01T02:57:16.073Z,66.40
2018-04-01T02:59:42.161Z,66.20
2018-04-01T03:02:08.329Z,66.50
2018-04-01T03:04:34.517Z,66.60
2018-04-01T03:07:00.529Z,66.60
2018-04-01T03:09:26.580Z,67.40
2018-04-01T03:11:52.640Z,68.00
2018-04-01T03:14:18.972Z,68.20
2018-04-01T03:16:45.004Z,68.80
2018-04-01T03:19:11.097Z,68.70
2018-04-01T03:21:37.138Z,69.00
2018-04-01T03:24:03.233Z,69.30
2018-04-01T03:26:29.336Z,69.40
2018-04-01T03:28:55.405Z,70.10
2018-04-01T03:31:21.461Z,70.30
2018-04-01T03:33:47.537Z,71.10
2018-04-01T03:36:13.637Z,71.70
2018-04-01T03:38:39.687Z,71.40
2018-04-01T03:41:05.855Z,71.70
2018-04-01T03:43:32.656Z,71.60
2018-04-01T03:45:58.777Z,71.60
2018-04-01T03:48:24.869Z,72.10
2018-04-01T03:50:50.996Z,72.10
2018-04-01T03:53:17.028Z,72.40
2018-04-01T03:55:43.080Z,72.10
2018-04-01T03:58:09.216Z,72.50
2018-04-01T04:00:35.265Z,72.30
2018-04-01T04:03:02.140Z,71.90
2018-04-01T04:05:28.261Z,71.90
2018-04-01T04:07:54.319Z,71.80
2018-04-01T04:10:20.400Z,71.80
2018-04-01T04:12:46.504Z,72.00
2018-04-01T04:15:13.331Z,71.90
2018-04-01T04:17:39.395Z,71.70
2018-04-01T04:20:05.492Z,71.30
2018-04-01T04:22:31.620Z,71.20
2018-04-01T04:24:58.397Z,70.80
2018-04-01T04:27:24.501Z,70.80
2018-04-01T04:29:51.369Z,70.30
2018-04-01T04:32:17.489Z,70.30
2018-04-01T04:34:43.563Z,70.20
2018-04-01T04:37:09.597Z,70.20
2018-04-01T04:39:36.476Z,70.20
2018-04-01T04:42:02.524Z,70.10
2018-04-01T04:44:28.613Z,70.50
2018-04-01T04:46:54.709Z,70.40
2018-04-01T04:49:20.780Z,70.60
2018-04-01T04:51:46.827Z,71.20
2018-04-01T04:54:12.913Z,70.40
2018-04-01T04:56:38.999Z,70.40
2018-04-01T04:59:05.082Z,70.20
2018-04-01T05:01:31.160Z,69.70
2018-04-01T05:03:57.973Z,68.80
2018-04-01T05:06:24.036Z,68.70
2018-04-01T05:08:50.876Z,67.90
2018-04-01T05:11:17.686Z,67.50
2018-04-01T05:13:43.752Z,67.50
2018-04-01T05:16:10.568Z,67.10
2018-04-01T05:18:36.653Z,66.90
2018-04-01T05:21:02.697Z,66.90
2018-04-01T05:23:28.818Z,66.70
2018-04-01T05:25:54.866Z,66.70
2018-04-01T05:28:21.041Z,67.00
2018-04-01T05:30:47.784Z,67.40
2018-04-01T05:33:13.877Z,67.30
2018-04-01T05:35:40.898Z,67.60
2018-04-01T05:38:07.166Z,67.60
2018-04-01T05:40:33.341Z,68.30
2018-04-01T05:43:00.257Z,68.70
2018-04-01T05:45:26.467Z,68.70
2018-04-01T05:47:52.711Z,69.00
2018-04-01T05:50:18.965Z,69.60
2018-04-01T05:52:45.803Z,70.70
2018-04-01T05:55:12.725Z,72.60
2018-04-01T05:57:38.886Z,72.60
2018-04-01T06:00:05.066Z,73.00
2018-04-01T06:02:31.330Z,73.70
2018-04-01T06:04:57.497Z,74.10
2018-04-01T06:07:23.816Z,73.70
2018-04-01T06:09:50.860Z,73.90
2018-04-01T06:12:17.029Z,73.90
2018-04-01T06:14:43.235Z,74.00
2018-04-01T06:17:09.504Z,74.60
2018-04-01T06:19:35.677Z,75.20
2018-04-01T06:22:01.826Z,74.70
2018-04-01T06:24:28.054Z,74.70
2018-04-01T06:26:54.284Z,74.80
2018-04-01T06:29:20.499Z,74.80
2018-04-01T06:31:46.715Z,75.30
2018-04-01T06:34:12.926Z,75.20
2018-04-01T06:36:39.136Z,75.30
2018-04-01T06:39:05.238Z,75.10
2018-04-01T06:41:31.465Z,75.00
2018-04-01T06:43:58.480Z,74.50
2018-04-01T06:46:24.639Z,74.50
2018-04-01T06:48:50.854Z,75.10
2018-04-01T06:51:17.154Z,75.10
2018-04-01T06:53:45.026Z,76.00
2018-04-01T06:56:11.219Z,76.00
2018-04-01T06:58:37.432Z,75.50
2018-04-01T07:01:04.387Z,75.70
2018-04-01T07:03:30.532Z,75.70
2018-04-01T07:05:57.420Z,75.80
2018-04-01T07:08:23.708Z,75.80
2018-04-01T07:10:49.917Z,75.40
2018-04-01T07:13:16.138Z,76.00
2018-04-01T07:15:42.394Z,76.30
2018-04-01T07:18:09.299Z,76.00
2018-04-01T07:20:35.471Z,76.00
2018-04-01T07:23:01.781Z,75.70
2018-04-01T07:25:27.965Z,75.20
2018-04-01T07:27:54.196Z,75.50
2018-04-01T07:30:20.373Z,75.30
2018-04-01T07:32:47.052Z,75.10
2018-04-01T07:35:13.552Z,75.60
2018-04-01T07:37:39.756Z,75.50
2018-04-01T07:40:05.932Z,75.50
2018-04-01T07:42:33.077Z,76.10
2018-04-01T07:44:59.363Z,76.10
2018-04-01T07:47:25.548Z,75.90
2018-04-01T07:49:51.740Z,76.40
2018-04-01T07:52:17.918Z,76.70
2018-04-01T07:54:44.834Z,77.80
2018-04-01T07:57:11.115Z,77.60
2018-04-01T07:59:37.194Z,78.40
2018-04-01T08:02:03.439Z,77.70
2018-04-01T08:04:29.634Z,78.00
2018-04-01T08:06:55.882Z,77.90
2018-04-01T08:09:22.066Z,77.90
2018-04-01T08:11:48.217Z,77.30
2018-04-01T08:14:14.385Z,76.70
2018-04-01T08:16:41.316Z,77.20
2018-04-01T08:19:08.232Z,77.30
2018-04-01T08:21:34.432Z,77.10
2018-04-01T08:24:00.627Z,76.90
2018-04-01T08:26:26.798Z,77.10
2018-04-01T08:28:53.049Z,76.70
2018-04-01T08:31:19.235Z,76.60
2018-04-01T08:33:45.484Z,76.60
2018-04-01T08:36:11.640Z,77.10
2018-04-01T08:38:37.783Z,78.20
2018-04-01T08:41:04.039Z,77.70
2018-04-01T08:43:30.108Z,77.50
2018-04-01T08:45:56.184Z,77.80
2018-04-01T08:48:22.260Z,78.00
2018-04-01T08:50:48.383Z,79.20
2018-04-01T08:53:14.525Z,79.30
2018-04-01T08:55:40.593Z,79.50
2018-04-01T08:58:06.691Z,79.20
2018-04-01T09:00:32.803Z,79.20
2018-04-01T09:02:58.906Z,79.20
2018-04-01T09:05:24.985Z,79.50
2018-04-01T09:07:51.112Z,79.50
2018-04-01T09:10:17.276Z,77.30
2018-04-01T09:12:43.368Z,76.30
2018-04-01T09:15:09.625Z,75.10
2018-04-01T09:17:35.750Z,75.30
2018-04-01T09:20:01.902Z,76.10
2018-04-01T09:22:27.983Z,76.00
2018-04-01T09:24:54.843Z,76.10
2018-04-01T09:27:21.691Z,75.90
2018-04-01T09:29:47.792Z,75.80
2018-04-01T09:32:14.637Z,75.00
2018-04-01T09:34:40.753Z,75.00
2018-04-01T09:37:06.808Z,74.20
2018-04-01T09:39:32.884Z,71.20
2018-04-01T09:41:59.017Z,71.30
2018-04-01T09:44:25.117Z,69.90
2018-04-01T09:46:51.196Z,69.00
2018-04-01T09:49:17.340Z,68.70
2018-04-01T09:51:43.470Z,69.20
2018-04-01T09:54:09.572Z,67.40
2018-04-01T09:56:35.723Z,67.90
2018-04-01T09:59:01.800Z,67.50
2018-04-01T10:01:28.108Z,69.60
2018-04-01T10:03:54.385Z,68.70
2018-04-01T10:06:21.440Z,69.20
2018-04-01T10:08:47.759Z,69.20
2018-04-01T10:11:13.976Z,69.20
2018-04-01T10:13:40.419Z,69.30
2018-04-01T10:16:06.903Z,70.00
2018-04-01T10:18:33.167Z,68.80
2018-04-01T10:21:00.188Z,67.00
2018-04-01T10:23:26.443Z,67.00
2018-04-01T10:25:52.709Z,67.40
2018-04-01T10:28:18.979Z,67.20
2018-04-01T10:30:45.229Z,68.20
2018-04-01T10:33:11.524Z,67.40
2018-04-01T10:35:37.807Z,67.50
2018-04-01T10:38:04.804Z,67.30
2018-04-01T10:40:31.082Z,67.30
2018-04-01T10:42:57.347Z,67.10
2018-04-01T10:45:23.627Z,67.30
2018-04-01T10:47:50.619Z,63.00
2018-04-01T10:50:16.915Z,63.00
2018-04-01T10:52:43.914Z,63.60
2018-04-01T10:55:09.996Z,63.40
2018-04-01T10:57:36.076Z,64.00
2018-04-01T11:00:02.151Z,63.30
2018-04-01T11:02:28.228Z,63.00
2018-04-01T11:04:54.314Z,62.50
2018-04-01T11:07:20.402Z,61.80
2018-04-01T11:09:47.256Z,60.00
2018-04-01T11:12:14.058Z,60.90
2018-04-01T11:14:40.153Z,60.90
2018-04-01T11:17:06.271Z,62.00
2018-04-01T11:19:32.374Z,62.70
2018-04-01T11:21:58.441Z,64.10
2018-04-01T11:24:24.596Z,65.00
2018-04-01T11:26:51.431Z,66.40
2018-04-01T11:29:17.539Z,66.20
2018-04-01T11:31:43.611Z,68.00
2018-04-01T11:34:09.697Z,67.80
2018-04-01T11:36:35.786Z,66.10
2018-04-01T11:39:01.892Z,67.10
2018-04-01T11:41:27.980Z,68.50
2018-04-01T11:43:54.047Z,67.30
2018-04-01T11:46:20.168Z,68.70
2018-04-01T11:48:46.310Z,67.30
2018-04-01T11:51:12.351Z,65.90
2018-04-01T11:53:38.446Z,66.00
2018-04-01T11:56:04.518Z,65.90
2018-04-01T11:58:30.591Z,64.70
2018-04-01T12:00:56.675Z,63.30
2018-04-01T12:03:22.700Z,62.90
2018-04-01T12:05:48.793Z,62.70
2018-04-01T12:08:15.309Z,61.90
2018-04-01T12:10:41.388Z,61.60
2018-04-01T12:13:07.432Z,62.30
2018-04-01T12:15:33.523Z,61.40
2018-04-01T12:17:59.644Z,60.30
2018-04-01T12:20:25.729Z,59.90
2018-04-01T12:22:51.772Z,61.30
2018-04-01T12:25:17.863Z,60.90
2018-04-01T12:27:43.896Z,61.50
2018-04-01T12:30:09.997Z,61.50
2018-04-01T12:32:36.828Z,62.00
2018-04-01T12:35:03.657Z,62.50
2018-04-01T12:37:29.700Z,62.40
2018-04-01T12:39:56.468Z,60.70
2018-04-01T12:42:22.586Z,60.70
2018-04-01T12:44:48.664Z,58.90
2018-04-01T12:47:14.737Z,61.20
2018-04-01T12:49:40.781Z,61.40
2018-04-01T12:52:07.095Z,60.20
2018-04-01T12:54:33.176Z,59.90
2018-04-01T12:56:59.284Z,59.50
2018-04-01T12:59:25.399Z,59.90
2018-04-01T13:01:51.469Z,59.80
2018-04-01T13:04:17.593Z,59.50
2018-04-01T13:06:44.399Z,60.20
2018-04-01T13:09:10.473Z,60.10
2018-04-01T13:11:36.555Z,60.10
2018-04-01T13:14:02.606Z,61.10
2018-04-01T13:16:28.694Z,60.40
2018-04-01T13:18:54.820Z,60.30
2018-04-01T13:21:20.887Z,59.80
2018-04-01T13:23:46.983Z,59.20
2018-04-01T13:26:13.039Z,59.60
2018-04-01T13:28:39.108Z,58.30
2018-04-01T13:31:05.155Z,58.10
2018-04-01T13:33:31.255Z,58.70
2018-04-01T13:35:57.309Z,59.10
2018-04-01T13:38:23.356Z,59.60
2018-04-01T13:40:49.505Z,60.00
2018-04-01T13:43:15.555Z,60.00
2018-04-01T13:45:41.579Z,59.90
2018-04-01T13:48:07.652Z,59.50
2018-04-01T13:50:34.439Z,61.70
2018-04-01T13:53:00.503Z,61.60
2018-04-01T13:55:27.319Z,61.60
2018-04-01T13:57:53.373Z,61.60
2018-04-01T14:00:20.191Z,61.60
2018-04-01T14:02:46.267Z,61.60
2018-04-01T14:05:12.349Z,63.00
2018-04-01T14:07:38.418Z,62.60
2018-04-01T14:10:04.480Z,62.80
2018-04-01T14:12:30.528Z,62.90
2018-04-01T14:14:56.637Z,63.50
2018-04-01T14:17:22.683Z,64.10
2018-04-01T14:19:49.498Z,64.40
2018-04-01T14:22:15.585Z,64.40
2018-04-01T14:24:41.648Z,63.60
2018-04-01T14:27:07.731Z,63.90
2018-04-01T14:29:33.812Z,61.80
2018-04-01T14:31:59.901Z,62.50
2018-04-01T14:34:25.955Z,63.80
2018-04-01T14:36:52.005Z,64.20
2018-04-01T14:39:18.802Z,65.40
2018-04-01T14:41:44.920Z,65.40
2018-04-01T14:44:10.988Z,65.50
2018-04-01T14:46:37.812Z,65.60
2018-04-01T14:49:04.666Z,65.40
2018-04-01T14:51:31.459Z,65.40
2018-04-01T14:53:57.555Z,65.40
2018-04-01T14:56:23.599Z,65.50
2018-04-01T14:58:49.647Z,65.60
2018-04-01T15:01:15.730Z,65.80
2018-04-01T15:03:41.800Z,65.60
2018-04-01T15:06:07.880Z,65.60
2018-04-01T15:08:33.931Z,65.60
2018-04-01T15:11:00.040Z,66.10
2018-04-01T15:13:26.133Z,65.70
2018-04-01T15:15:52.959Z,66.20
2018-04-01T15:18:19.046Z,66.10
2018-04-01T15:20:45.092Z,65.90
2018-04-01T15:23:11.141Z,66.00
2018-04-01T15:25:37.964Z,67.50
2018-04-01T15:28:04.025Z,66.70
2018-04-01T15:30:30.127Z,66.60
2018-04-01T15:32:56.908Z,63.90
2018-04-01T15:35:22.970Z,63.90
2018-04-01T15:37:49.076Z,63.80
2018-04-01T15:40:15.165Z,63.50
2018-04-01T15:42:41.269Z,61.60
2018-04-01T15:45:08.112Z,61.50
2018-04-01T15:47:34.145Z,61.50
2018-04-01T15:50:00.948Z,60.70
2018-04-01T15:52:27.088Z,60.70
2018-04-01T15:54:53.135Z,60.10
2018-04-01T15:57:20.041Z,61.40
2018-04-01T15:59:46.092Z,61.40
2018-04-01T16:02:12.929Z,62.80
2018-04-01T16:04:38.999Z,62.80
2018-04-01T16:07:05.096Z,62.50
2018-04-01T16:09:31.192Z,63.30
2018-04-01T16:11:57.281Z,63.20
2018-04-01T16:14:23.347Z,63.40
2018-04-01T16:16:49.451Z,63.60
2018-04-01T16:19:15.512Z,63.60
2018-04-01T16:21:41.621Z,63.40
2018-04-01T16:24:07.668Z,63.70
2018-04-01T16:26:34.493Z,63.30
2018-04-01T16:29:01.294Z,63.40
2018-04-01T16:31:27.388Z,62.50
2018-04-01T16:33:53.432Z,62.10
2018-04-01T16:36:19.490Z,61.40
2018-04-01T16:38:45.568Z,61.10
2018-04-01T16:41:11.653Z,60.90
2018-04-01T16:43:37.744Z,60.60
2018-04-01T16:46:03.821Z,60.70
2018-04-01T16:48:29.879Z,60.80
2018-04-01T16:50:55.951Z,61.00
2018-04-01T16:53:22.085Z,61.10
2018-04-01T16:55:48.901Z,62.30
2018-04-01T16:58:14.956Z,62.20
2018-04-01T17:00:41.971Z,61.70
2018-04-01T17:03:08.075Z,61.60
2018-04-01T17:05:34.152Z,62.20
2018-04-01T17:08:01.008Z,62.60
2018-04-01T17:10:27.069Z,62.60
2018-04-01T17:12:53.121Z,63.60
2018-04-01T17:15:19.209Z,63.90
2018-04-01T17:17:45.254Z,64.20
2018-04-01T17:20:11.278Z,64.30
2018-04-01T17:22:37.365Z,64.20
2018-04-01T17:25:03.422Z,64.20
2018-04-01T17:27:29.650Z,64.10
2018-04-01T17:29:55.745Z,63.90
2018-04-01T17:32:21.809Z,63.90
2018-04-01T17:34:48.670Z,64.00
2018-04-01T17:37:14.791Z,63.20
2018-04-01T17:39:40.893Z,64.00
2018-04-01T17:42:06.988Z,64.20
2018-04-01T17:44:33.041Z,63.40
2018-04-01T17:46:59.122Z,63.20
2018-04-01T17:49:25.190Z,62.80
2018-04-01T17:51:51.296Z,63.20
2018-04-01T17:54:17.383Z,63.60
2018-04-01T17:56:43.443Z,62.70
2018-04-01T17:59:09.581Z,62.90
2018-04-01T18:01:35.671Z,62.70
2018-04-01T18:04:01.743Z,62.60
2018-04-01T18:06:27.826Z,62.50
2018-04-01T18:08:53.885Z,61.60
2018-04-01T18:11:19.968Z,61.60
2018-04-01T18:13:46.798Z,61.50
2018-04-01T18:16:12.910Z,61.40
2018-04-01T18:18:39.718Z,61.10
2018-04-01T18:21:05.790Z,61.10
2018-04-01T18:23:31.826Z,61.10
2018-04-01T18:25:57.897Z,60.70
2018-04-01T18:28:23.950Z,60.70
2018-04-01T18:30:50.749Z,60.80
2018-04-01T18:33:16.819Z,60.80
2018-04-01T18:35:43.626Z,60.60
2018-04-01T18:38:09.730Z,60.60
2018-04-01T18:40:35.819Z,60.40
2018-04-01T18:43:01.947Z,60.60
2018-04-01T18:45:28.003Z,60.00
2018-04-01T18:47:54.070Z,60.10
2018-04-01T18:50:20.861Z,60.20
2018-04-01T18:52:46.958Z,60.90
2018-04-01T18:55:13.042Z,60.60
2018-04-01T18:57:39.113Z,60.50
2018-04-01T19:00:05.189Z,60.10
2018-04-01T19:02:31.281Z,60.10
2018-04-01T19:04:58.259Z,60.00
2018-04-01T19:07:24.542Z,60.00
2018-04-01T19:09:50.881Z,59.80
2018-04-01T19:12:17.127Z,59.60
2018-04-01T19:14:44.104Z,59.60
2018-04-01T19:17:10.688Z,59.60
2018-04-01T19:19:37.294Z,59.50
2018-04-01T19:22:03.821Z,59.50
2018-04-01T19:24:30.407Z,59.80
2018-04-01T19:26:56.896Z,59.80
2018-04-01T19:29:23.596Z,60.10
2018-04-01T19:31:50.264Z,60.10
2018-04-01T19:34:16.749Z,60.10
2018-04-01T19:36:43.337Z,60.20
2018-04-01T19:39:09.810Z,60.20
2018-04-01T19:41:36.434Z,60.30
2018-04-01T19:44:03.124Z,60.30
2018-04-01T19:46:30.482Z,60.30
2018-04-01T19:48:57.098Z,60.30
2018-04-01T19:51:23.731Z,60.60
2018-04-01T19:53:50.981Z,61.30
2018-04-01T19:56:17.546Z,61.10
2018-04-01T19:58:44.124Z,61.10
2018-04-01T20:01:11.833Z,61.50
2018-04-01T20:03:38.539Z,61.80
2018-04-01T20:06:05.156Z,62.00
2018-04-01T20:08:31.792Z,62.30
2018-04-01T20:10:58.297Z,62.50
2018-04-01T20:13:24.898Z,62.30
2018-04-01T20:15:52.418Z,62.40
2018-04-01T20:18:18.983Z,62.40
2018-04-01T20:20:45.488Z,62.60
2018-04-01T20:23:12.098Z,62.60
2018-04-01T20:25:38.681Z,62.90
2018-04-01T20:28:05.251Z,63.20
2018-04-01T20:30:31.868Z,63.00
2018-04-01T20:32:58.426Z,62.80
2018-04-01T20:35:25.563Z,62.40
2018-04-01T20:37:51.820Z,62.20
2018-04-01T20:40:18.222Z,62.10
2018-04-01T20:42:44.600Z,62.00
2018-04-01T20:45:10.889Z,62.00
2018-04-01T20:47:37.903Z,61.80
2018-04-01T20:50:04.172Z,62.50
2018-04-01T20:52:31.188Z,62.30
2018-04-01T20:54:57.467Z,62.30
2018-04-01T20:57:23.783Z,62.40
2018-04-01T20:59:50.057Z,62.50
2018-04-01T21:02:16.361Z,62.50
2018-04-01T21:04:42.697Z,62.70
2018-04-01T21:07:09.096Z,62.80
2018-04-01T21:09:35.421Z,62.40
2018-04-01T21:12:01.717Z,62.30
2018-04-01T21:14:28.047Z,62.20
2018-04-01T21:16:54.384Z,61.30
2018-04-01T21:19:20.734Z,61.90
2018-04-01T21:21:47.988Z,62.00
2018-04-01T21:24:14.564Z,62.00
2018-04-01T21:26:41.791Z,61.70
2018-04-01T21:29:09.238Z,61.60
2018-04-01T21:31:35.830Z,61.60
2018-04-01T21:34:02.729Z,61.70
2018-04-01T21:36:29.409Z,61.50
2018-04-01T21:38:55.747Z,61.40
2018-04-01T21:41:22.171Z,61.10
2018-04-01T21:43:48.568Z,61.00
2018-04-01T21:46:14.930Z,61.00
2018-04-01T21:48:41.175Z,61.00
2018-04-01T21:51:08.261Z,61.10
2018-04-01T21:53:35.340Z,61.00
2018-04-01T21:56:01.720Z,60.90
2018-04-01T21:58:28.736Z,61.00
2018-04-01T22:00:55.047Z,61.00
2018-04-01T22:03:21.377Z,60.80
2018-04-01T22:05:47.657Z,61.50
2018-04-01T22:08:13.934Z,60.60
2018-04-01T22:10:40.197Z,60.30
2018-04-01T22:13:07.224Z,60.50
2018-04-01T22:15:33.480Z,60.30
2018-04-01T22:17:59.742Z,60.50
2018-04-01T22:20:26.746Z,60.30
2018-04-01T22:23:05.226Z,60.20
2018-04-01T22:25:31.503Z,60.00
2018-04-01T22:27:57.745Z,60.10
2018-04-01T22:30:24.790Z,59.70
2018-04-01T22:32:51.040Z,59.70
2018-04-01T22:35:17.384Z,59.70
2018-04-01T22:37:43.715Z,59.40
2018-04-01T22:40:10.002Z,59.40
2018-04-01T22:42:36.294Z,59.50
2018-04-01T22:45:02.507Z,59.60
2018-04-01T22:47:28.768Z,60.00
2018-04-01T22:49:55.052Z,59.90
2018-04-01T22:52:21.348Z,59.90
2018-04-01T22:54:47.629Z,60.00
2018-04-01T22:57:13.860Z,60.00
2018-04-01T22:59:40.147Z,60.20
2018-04-01T23:02:06.421Z,60.40
2018-04-01T23:04:32.723Z,60.50
2018-04-01T23:06:59.028Z,60.50
2018-04-01T23:09:25.299Z,60.20
2018-04-01T23:11:51.580Z,59.80
2018-04-01T23:14:17.789Z,60.30
2018-04-01T23:16:44.044Z,60.60
2018-04-01T23:19:10.328Z,60.90
2018-04-01T23:21:36.611Z,61.00
2018-04-01T23:24:03.656Z,61.30
2018-04-01T23:26:29.976Z,61.20
2018-04-01T23:28:56.269Z,61.40
2018-04-01T23:31:22.600Z,61.70
2018-04-01T23:33:48.919Z,61.90
2018-04-01T23:36:15.231Z,61.90
2018-04-01T23:38:41.505Z,61.70
2018-04-01T23:41:07.764Z,61.60
2018-04-01T23:43:34.783Z,62.60
2018-04-01T23:46:01.060Z,62.60
2018-04-01T23:48:27.381Z,62.60
2018-04-01T23:50:53.647Z,62.80
2018-04-01T23:53:19.912Z,62.80
2018-04-01T23:55:46.191Z,63.30
2018-04-01T23:58:12.455Z,62.50
